Pershing, Indiana
Current Conditions -  °F | °C
As of 5:53 AM on Saturday 20 Dec 2014 (Local Time) from KMIE Reporting Station
Haze Haze  
Wind Chill: -2°   Ceiling: 2100
Heat Index: -2°   Visibility: 4mi
Dew Point: -3°   Wind: 0mph
Humidity: 92%   Direction: NA
Pressure: 30.26"   Gusts: NA
Location:  39.83°N, 85.13°W
Report Text: KMIE 201053Z 00000KT 4SM BR BKN021 OVC030 M02/M03 A3026 RMK AO2 SLP254 T10221033 $
Loading
Personal Weather Stations






























Interactive Weather Map New forecast layout! Learn more

10-Day Weather Forecast

Advertisements
Track Severe Weather on mobile